Meteo Sokobanja - METAR stanice u blizini


METAR stanice u blizini

 

LYBE - Beograd / Surčin, Srbija
Ažurirano: 17/08/2018 23:30
Vedro
Vedro
 Pravac vetra I
Vetar: I 9 km/h
Temperatura: 23°C
Tačka rose: 15°C
Vlažnost: 61%
Pritisak: 1015 hPa
Pregled: Vedro
Vidljivost: greater than 10 km
2018/08/17 21:30 LYBE 172130Z 08005KT CAVOK 23/15 Q1015 NOSIG
LYBT - Beograd / Batajnica, Srbija
Ažurirano: 17/08/2018 23:30
Vedro
Vedro
 Pravac vetra calm
Vetar: Tišina
Temperatura: 21°C
Tačka rose: 16°C
Vlažnost: 73%
Pritisak: 1015 hPa
Pregled: Vedro
Vidljivost: greater than 10 km
2018/08/17 21:30 LYBT 172130Z 00000KT CAVOK 21/16 Q1015 NOSIG
LYVR - Vršac, Srbija
Ažurirano: 17/08/2018 23:30
Vedro
Vedro
 Pravac vetra calm
Vetar: Tišina
Temperatura: 18°C
Tačka rose: 15°C
Vlažnost: 83%
Pritisak: 1015 hPa
Pregled: Vedro
Vidljivost: greater than 10 km
2018/08/17 21:30 LYVR 172130Z 00000KT CAVOK 18/15 Q1015 NOSIG
 
LYKV - Lađevci, Srbija
Ažurirano: 17/08/2018 23:30
Vedro
Vedro
 Pravac vetra calm
Vetar: Tišina
Temperatura: 19°C
Tačka rose: 18°C
Vlažnost: 94%
Pritisak: 1016 hPa
Pregled: Vedro
Vidljivost: greater than 10 km
2018/08/17 21:30 LYKV 172130Z 00000KT CAVOK 19/18 Q1016 NOSIG
LYNI - Niš, Srbija
Ažurirano: 17/08/2018 23:30
Vedro
Vedro
 Pravac vetra varies
Vetar: varies 2 km/h
Temperatura: 21°C
Tačka rose: 14°C
Vlažnost: 64%
Pritisak: 1015 hPa
Pregled: Vedro
Vidljivost: greater than 10 km
2018/08/17 21:30 LYNI 172130Z VRB01KT CAVOK 21/14 Q1015 NOSIG
BKPR - Priština, Srbija
Ažurirano: 17/08/2018 23:30
Vedro
Vedro
 Pravac vetra varies
Vetar: varies 4 km/h
Temperatura: 18°C
Tačka rose: 14°C
Vlažnost: 78%
Pritisak: 1017 hPa
Pregled: Vedro
Vidljivost: greater than 10 km
2018/08/17 21:30 BKPR 172130Z VRB02KT CAVOK 18/14 Q1017 NOSIG
 
LHPP - Pecs / Pogany, Hungary
Ažurirano: 17/08/2018 18:45
NOT Current
Vedro
Vedro
 Pravac vetra SSZ
Vetar: SSZ 7 km/h
Temperatura: 27°C
Heat Index: 28°C
Tačka rose: 17°C
Vlažnost: 54%
Pritisak: 1015 hPa
Pregled: Vedro
Vidljivost: greater than 10 km
2018/08/17 16:45 LHPP 171645Z 33004KT CAVOK 27/17 Q1015
LHUD - Szeged, Hungary
Ažurirano: 17/08/2018 22:45
Vedro
Vedro
 Pravac vetra ISI
Vetar: ISI 6 km/h
Temperatura: 24°C
Tačka rose: 16°C
Vlažnost: 61%
Pritisak: 1016 hPa
Pregled: Vedro
Vidljivost: greater than 10 km
2018/08/17 20:45 LHUD 172045Z 06003KT CAVOK 24/16 Q1016
LRTR - Timisoara, Romania
Ažurirano: 17/08/2018 23:00
Vedro
Vedro
 Pravac vetra SI
Vetar: SI 6 km/h
Temperatura: 21°C
Tačka rose: 18°C
Vlažnost: 83%
Pritisak: 1015 hPa
Pregled: Vedro
Vidljivost: greater than 10 km
2018/08/17 21:00 LRTR 172100Z 05003KT CAVOK 21/18 Q1015
 
LRCV - Craiova, Romania
Ažurirano: 17/08/2018 23:00
Vedro
Vedro
 Pravac vetra I
Vetar: I 17 km/h
Temperatura: 23°C
Tačka rose: 16°C
Vlažnost: 65%
Pritisak: 1015 hPa
Pregled: Vedro
Vidljivost: greater than 10 km
2018/08/17 21:00 LRCV 172100Z 09009KT CAVOK 23/16 Q1015
LBSF - Sofia, Bulgaria
Ažurirano: 17/08/2018 23:30
Vedro
Vedro
 Pravac vetra J
Vetar: J 7 km/h
Temperatura: 18°C
Tačka rose: 15°C
Vlažnost: 83%
Pritisak: 1017 hPa
Pregled: Vedro
Vidljivost: greater than 10 km
2018/08/17 21:30 LBSF 172130Z 18004KT 110V200 CAVOK 18/15 Q1017 NOSIG
LWSK - Skoplje, Makedonija
Ažurirano: 17/08/2018 23:30
Vedro
Vedro
 Pravac vetra calm
Vetar: Tišina
Temperatura: 22°C
Tačka rose: 16°C
Vlažnost: 69%
Pritisak: 1015 hPa
Pregled: Vedro
Vidljivost: greater than 10 km
2018/08/17 21:30 LWSK 172130Z 00000KT CAVOK 22/16 Q1015 NOSIG
 
LYPG - Podgorica, Crna Gora
Ažurirano: 17/08/2018 23:30
Vedro
Vedro
 Pravac vetra S
Vetar: S 6 km/h
Temperatura: 26°C
Tačka rose: 15°C
Vlažnost: 51%
Pritisak: 1013 hPa
Pregled: Vedro
Vidljivost: greater than 10 km
2018/08/17 21:30 LYPG 172130Z 36003KT CAVOK 26/15 Q1013 NOSIG
LQSA - Sarajevo, Bosna i Hercegovina
Ažurirano: 17/08/2018 23:30
Vedro
Vedro
 Pravac vetra JI
Vetar: JI 6 km/h
Temperatura: 16°C
Tačka rose: 15°C
Vlažnost: 94%
Pritisak: 1018 hPa
Pregled: Vedro
Vidljivost: greater than 10 km
2018/08/17 21:30 LQSA 172130Z 14003KT CAVOK 16/15 Q1018 NOSIG
LDOS - Osijek, Hrvatksa
Ažurirano: 17/08/2018 23:30
Vedro
Vedro
 Pravac vetra S
Vetar: S 9 km/h
Temperatura: 21°C
Tačka rose: 17°C
Vlažnost: 78%
Pritisak: 1015 hPa
Pregled: Vedro
Vidljivost: greater than 10 km
2018/08/17 21:30 LDOS 172130Z 36005KT CAVOK 21/17 Q1015